Time;durP1;ratioP1;P1;durP2;ratioP2;P2;SDS_P1;SDS_P2;PMS_P1;PMS_P2;Temp;Humidity;BMP_temperature;BMP_pressure;BME280_temperature;BME280_humidity;BME280_pressure;Samples;Min_cycle;Max_cycle;Signal;HPM_P1;HPM_P2
2023/05/17 00:04:29;;;;;;;29.70;19.80;;;22.80;64.80;;;;;;221773;1269;25324;-45
2023/05/17 00:09:33;;;;;;;29.30;19.70;;;22.80;64.80;;;;;;221665;1256;22524;-44
2023/05/17 00:14:37;;;;;;;29.50;19.40;;;22.70;64.80;;;;;;221580;1268;23947;-43
2023/05/17 00:19:41;;;;;;;28.60;19.60;;;22.80;64.90;;;;;;221680;1269;22512;-43
2023/05/17 00:24:45;;;;;;;28.30;18.60;;;22.70;64.60;;;;;;221545;1265;22615;-43
2023/05/17 00:29:50;;;;;;;27.40;19.10;;;22.70;64.80;;;;;;221477;1260;22797;-42
2023/05/17 00:34:55;;;;;;;28.30;17.90;;;22.70;64.80;;;;;;221881;1266;22521;-43
2023/05/17 00:39:59;;;;;;;31.20;17.80;;;22.70;64.70;;;;;;221910;1265;24223;-43
2023/05/17 00:45:06;;;;;;;26.10;18.70;;;22.70;64.70;;;;;;221924;1268;24233;-41
2023/05/17 00:50:10;;;;;;;25.10;17.00;;;22.70;64.30;;;;;;221584;1266;22551;-43
2023/05/17 00:55:15;;;;;;;25.80;17.50;;;22.70;64.40;;;;;;221764;1266;22515;-45
2023/05/17 01:00:19;;;;;;;28.30;16.70;;;22.70;64.80;;;;;;221702;1268;24194;-43
2023/05/17 01:05:27;;;;;;;24.40;17.30;;;22.60;64.40;;;;;;221690;1270;22537;-44
2023/05/17 01:11:00;;;;;;;21.10;15.60;;;22.60;64.50;;;;;;221916;1264;22525;-43
2023/05/17 01:16:29;;;;;;;22.00;15.60;;;22.60;64.90;;;;;;221771;1264;23880;-47
2023/05/17 01:21:49;;;;;;;23.10;16.10;;;22.60;64.50;;;;;;221685;1258;22978;-41
2023/05/17 01:26:55;;;;;;;24.00;16.10;;;22.60;64.40;;;;;;222038;1264;22525;-42
2023/05/17 01:32:02;;;;;;;24.30;15.50;;;22.60;64.00;;;;;;221799;1259;25334;-46
2023/05/17 01:37:06;;;;;;;22.00;14.10;;;22.50;64.40;;;;;;221723;1264;25369;-43
2023/05/17 01:42:21;;;;;;;19.10;14.80;;;22.50;64.40;;;;;;221731;1251;22522;-45
2023/05/17 01:48:03;;;;;;;21.80;15.60;;;22.50;64.60;;;;;;221763;1264;22521;-45
2023/05/17 01:53:15;;;;;;;19.80;14.10;;;22.50;64.70;;;;;;221644;1259;22513;-43
2023/05/17 01:58:23;;;;;;;21.90;13.80;;;22.50;64.00;;;;;;221775;1263;24182;-43
2023/05/17 02:03:28;;;;;;;19.90;14.10;;;22.50;64.30;;;;;;221700;1258;22595;-46
2023/05/17 02:08:32;;;;;;;16.70;13.30;;;22.50;64.90;;;;;;221685;1264;24193;-44
2023/05/17 02:13:36;;;;;;;21.30;12.90;;;22.50;64.20;;;;;;221508;1264;207351;-43
2023/05/17 02:18:40;;;;;;;20.00;14.00;;;22.40;64.20;;;;;;221987;1260;22601;-44
2023/05/17 02:23:44;;;;;;;20.60;13.80;;;22.40;64.10;;;;;;221748;1257;22533;-42
2023/05/17 02:28:49;;;;;;;19.00;13.50;;;22.40;64.30;;;;;;221788;1257;22507;-42
2023/05/17 02:33:53;;;;;;;17.70;13.00;;;22.40;64.20;;;;;;221454;1267;22903;-41
2023/05/17 02:38:58;;;;;;;15.40;12.30;;;22.40;64.10;;;;;;222157;1264;25268;-43
2023/05/17 02:44:03;;;;;;;18.10;12.80;;;22.40;64.00;;;;;;221712;1267;24191;-40
2023/05/17 02:49:07;;;;;;;15.70;11.90;;;22.40;63.90;;;;;;223160;1257;22636;-43
2023/05/17 02:54:11;;;;;;;15.80;12.60;;;22.50;63.70;;;;;;221722;1256;24323;-43
2023/05/17 02:59:15;;;;;;;18.10;11.80;;;22.40;63.60;;;;;;222077;1270;25386;-43
2023/05/17 03:04:20;;;;;;;15.30;11.90;;;22.40;64.10;;;;;;221723;1260;24315;-41
2023/05/17 03:09:24;;;;;;;15.10;10.90;;;22.30;63.90;;;;;;221931;1267;22517;-46
2023/05/17 03:14:29;;;;;;;15.10;11.80;;;22.40;64.10;;;;;;221748;1271;24125;-41
2023/05/17 03:19:33;;;;;;;17.80;12.10;;;22.30;64.10;;;;;;221868;1264;22588;-45
2023/05/17 03:24:39;;;;;;;15.90;11.70;;;22.30;64.00;;;;;;221699;1257;22664;-41
2023/05/17 03:29:43;;;;;;;16.20;11.00;;;22.30;63.70;;;;;;222057;1260;23936;-42
2023/05/17 03:34:49;;;;;;;16.80;11.20;;;22.30;63.80;;;;;;221862;1269;22598;-43
2023/05/17 03:39:53;;;;;;;13.20;10.80;;;22.30;64.20;;;;;;221704;1259;22947;-44
2023/05/17 03:44:57;;;;;;;16.50;9.80;;;22.30;64.20;;;;;;221522;1267;22528;-45
2023/05/17 03:50:02;;;;;;;12.60;10.10;;;22.30;63.80;;;;;;221769;1267;22521;-42
2023/05/17 03:55:08;;;;;;;14.40;9.50;;;22.30;63.80;;;;;;221775;1266;25396;-43
2023/05/17 04:00:13;;;;;;;11.30;10.10;;;22.20;63.80;;;;;;221794;1258;24306;-44
2023/05/17 04:05:19;;;;;;;10.90;9.10;;;22.20;63.70;;;;;;222149;1259;22681;-42
2023/05/17 04:10:23;;;;;;;11.90;9.30;;;22.20;64.00;;;;;;221750;1258;24337;-42
2023/05/17 04:15:28;;;;;;;10.30;8.40;;;22.20;63.70;;;;;;221669;1257;22579;-48
2023/05/17 04:20:34;;;;;;;10.60;8.50;;;22.20;63.80;;;;;;221671;1257;22877;-44
2023/05/17 04:25:38;;;;;;;10.80;8.70;;;22.20;63.80;;;;;;221720;1261;22515;-43
2023/05/17 04:30:45;;;;;;;11.80;9.30;;;22.10;63.70;;;;;;221945;1263;22528;-42
2023/05/17 04:35:50;;;;;;;9.50;7.90;;;22.10;64.00;;;;;;221744;1269;22524;-46
2023/05/17 04:41:01;;;;;;;11.60;8.60;;;22.10;64.00;;;;;;221687;1266;24215;-43
2023/05/17 04:46:07;;;;;;;11.50;9.00;;;22.10;63.80;;;;;;221956;1265;22643;-45
2023/05/17 04:51:12;;;;;;;10.30;8.30;;;22.10;63.70;;;;;;221739;1264;22533;-45
2023/05/17 04:56:17;;;;;;;14.50;8.60;;;22.10;63.70;;;;;;221741;1271;25309;-44
2023/05/17 05:01:22;;;;;;;9.70;8.00;;;22.10;63.70;;;;;;222010;1257;24357;-43
2023/05/17 05:06:26;;;;;;;10.10;7.40;;;22.00;63.60;;;;;;221825;1270;22511;-44
2023/05/17 05:11:31;;;;;;;9.40;7.30;;;22.10;64.10;;;;;;221635;1263;22592;-42
2023/05/17 05:16:36;;;;;;;8.60;7.20;;;22.00;63.70;;;;;;221741;1263;22726;-42
2023/05/17 05:21:40;;;;;;;10.60;7.50;;;22.10;63.40;;;;;;221690;1266;23090;-42
2023/05/17 05:26:45;;;;;;;10.30;8.30;;;22.00;63.60;;;;;;222153;1263;22529;-44
2023/05/17 05:31:51;;;;;;;8.10;7.00;;;22.10;63.90;;;;;;221938;1262;23016;-42
2023/05/17 05:36:56;;;;;;;10.20;7.10;;;22.10;63.50;;;;;;221928;1266;22524;-45
2023/05/17 05:42:03;;;;;;;7.80;6.60;;;22.10;64.00;;;;;;221692;1256;22514;-44
2023/05/17 05:47:07;;;;;;;9.00;7.30;;;22.10;63.30;;;;;;221828;1258;24251;-46
2023/05/17 05:52:11;;;;;;;7.30;6.60;;;22.00;63.80;;;;;;222114;1257;22520;-46
2023/05/17 05:57:16;;;;;;;15.00;8.40;;;22.20;63.80;;;;;;222067;1257;22729;-45
2023/05/17 06:02:20;;;;;;;10.00;7.80;;;22.20;64.20;;;;;;221812;1271;22521;-48
2023/05/17 06:07:25;;;;;;;10.50;7.30;;;22.20;64.40;;;;;;222029;1257;24251;-47
2023/05/17 06:12:29;;;;;;;11.90;6.80;;;22.10;64.20;;;;;;221801;1264;22537;-50
2023/05/17 06:17:33;;;;;;;12.50;7.10;;;22.10;64.10;;;;;;221890;1259;22993;-52
2023/05/17 06:22:37;;;;;;;8.00;6.60;;;22.10;65.20;;;;;;221765;1265;24200;-49
2023/05/17 06:27:42;;;;;;;12.90;6.80;;;22.20;64.20;;;;;;221921;1257;22576;-44
2023/05/17 06:32:46;;;;;;;8.80;6.10;;;22.20;64.40;;;;;;221757;1269;22714;-50
2023/05/17 06:37:50;;;;;;;11.80;6.30;;;22.20;64.30;;;;;;221780;1267;22529;-48
2023/05/17 06:42:54;;;;;;;10.30;6.10;;;22.20;65.00;;;;;;222029;1257;24263;-44
2023/05/17 06:47:58;;;;;;;11.40;5.30;;;22.30;64.80;;;;;;222154;1263;25282;-46
2023/05/17 06:53:03;;;;;;;14.30;5.80;;;22.30;64.40;;;;;;221766;1265;22521;-47
2023/05/17 06:58:08;;;;;;;12.90;5.60;;;22.30;64.40;;;;;;221942;1265;22472;-46
2023/05/17 07:03:12;;;;;;;11.00;5.70;;;22.40;63.40;;;;;;221602;1259;23946;-46
2023/05/17 07:08:16;;;;;;;7.70;5.50;;;22.30;62.90;;;;;;222047;1266;22515;-46
2023/05/17 07:13:20;;;;;;;11.90;4.90;;;22.40;62.80;;;;;;221738;1256;24384;-50
2023/05/17 07:18:25;;;;;;;6.50;5.40;;;22.30;62.50;;;;;;221875;1259;22500;-47
2023/05/17 07:23:29;;;;;;;6.60;4.70;;;22.30;62.50;;;;;;221884;1264;22650;-49
2023/05/17 07:28:36;;;;;;;7.70;5.00;;;22.30;62.50;;;;;;221942;1270;22517;-51
2023/05/17 07:33:40;;;;;;;7.50;4.80;;;22.30;62.30;;;;;;221824;1256;23969;-50
2023/05/17 07:38:44;;;;;;;7.10;5.10;;;22.20;62.00;;;;;;221758;1260;24302;-47
2023/05/17 07:43:49;;;;;;;8.50;5.10;;;22.20;62.10;;;;;;221659;1265;22513;-52
2023/05/17 07:48:53;;;;;;;5.60;4.40;;;22.20;62.30;;;;;;222164;1256;24257;-47
2023/05/17 07:54:02;;;;;;;7.80;4.90;;;22.20;61.90;;;;;;221662;1265;22547;-49
2023/05/17 07:59:06;;;;;;;7.50;4.40;;;22.10;61.60;;;;;;222137;1266;22640;-46
2023/05/17 08:04:10;;;;;;;4.60;4.10;;;22.20;61.70;;;;;;221752;1248;25676;-51
2023/05/17 08:09:15;;;;;;;6.60;4.40;;;22.10;61.70;;;;;;221834;1257;22627;-50
2023/05/17 08:14:21;;;;;;;6.30;3.90;;;22.10;61.90;;;;;;221863;1263;24196;-46
2023/05/17 08:19:25;;;;;;;5.40;4.80;;;22.10;61.50;;;;;;221894;1264;22533;-47
2023/05/17 08:24:29;;;;;;;4.80;4.40;;;22.10;61.70;;;;;;221218;1262;22665;-48
2023/05/17 08:29:34;;;;;;;5.30;3.50;;;22.10;61.30;;;;;;221077;1262;22562;-47
2023/05/17 08:34:41;;;;;;;5.20;3.90;;;22.10;61.30;;;;;;220863;1267;22609;-47
2023/05/17 08:39:45;;;;;;;5.60;4.30;;;22.10;61.20;;;;;;221221;1261;22653;-47
2023/05/17 08:44:51;;;;;;;5.30;3.90;;;22.10;61.10;;;;;;221340;1262;22506;-50
2023/05/17 08:50:04;;;;;;;4.60;3.90;;;22.10;61.40;;;;;;221183;1261;24546;-49
2023/05/17 08:55:09;;;;;;;4.70;3.80;;;22.10;61.10;;;;;;221457;1264;23330;-47
2023/05/17 09:00:18;;;;;;;4.90;3.50;;;22.00;61.00;;;;;;221556;1249;24248;-46
2023/05/17 09:05:22;;;;;;;5.60;3.70;;;22.00;60.80;;;;;;220591;1271;22525;-46
2023/05/17 09:10:26;;;;;;;4.20;3.60;;;22.00;60.80;;;;;;220361;1264;22528;-47
2023/05/17 09:15:33;;;;;;;5.60;3.50;;;22.10;60.70;;;;;;220477;1266;25282;-49
2023/05/17 09:20:38;;;;;;;3.70;3.40;;;22.10;61.10;;;;;;220769;1265;24293;-51
2023/05/17 09:25:48;;;;;;;5.10;3.40;;;22.20;60.70;;;;;;221729;1259;22604;-50
2023/05/17 09:30:52;;;;;;;6.90;3.60;;;22.20;60.60;;;;;;221620;1272;26624;-53
2023/05/17 09:35:56;;;;;;;4.80;3.50;;;22.20;60.80;;;;;;221702;1265;22520;-46
2023/05/17 09:41:01;;;;;;;5.20;3.40;;;22.20;60.90;;;;;;221579;1262;22649;-46
2023/05/17 09:46:05;;;;;;;5.80;3.60;;;22.00;60.90;;;;;;221603;1265;26500;-46
2023/05/17 09:51:10;;;;;;;4.40;3.60;;;22.10;61.00;;;;;;221516;1265;25320;-49
2023/05/17 09:56:14;;;;;;;3.90;3.50;;;22.20;60.70;;;;;;221509;1256;23375;-49
2023/05/17 10:01:21;;;;;;;3.60;3.30;;;22.20;60.70;;;;;;221796;1257;22557;-48
2023/05/17 10:06:27;;;;;;;8.00;3.90;;;22.10;60.70;;;;;;221871;1258;24096;-45
2023/05/17 10:11:38;;;;;;;4.70;3.60;;;22.10;61.00;;;;;;221398;1264;22567;-48
2023/05/17 10:16:42;;;;;;;7.30;3.00;;;22.10;61.00;;;;;;221739;1259;22530;-54
2023/05/17 10:21:48;;;;;;;6.60;3.30;;;22.10;61.30;;;;;;221627;1249;25630;-47
2023/05/17 10:26:53;;;;;;;5.10;3.10;;;22.10;61.60;;;;;;221641;1266;25394;-50
2023/05/17 10:31:58;;;;;;;5.60;2.90;;;22.20;61.50;;;;;;221616;1263;24271;-46
2023/05/17 10:37:03;;;;;;;5.80;3.80;;;22.10;61.70;;;;;;221708;1265;25294;-46
2023/05/17 10:42:07;;;;;;;3.00;2.70;;;22.00;61.90;;;;;;221552;1268;22642;-47
2023/05/17 10:47:14;;;;;;;6.50;3.30;;;22.00;61.90;;;;;;221805;1265;22520;-48
2023/05/17 10:52:22;;;;;;;5.90;3.40;;;22.10;62.40;;;;;;221835;1259;22607;-49
2023/05/17 10:57:35;;;;;;;3.00;2.70;;;22.20;61.20;;;;;;222040;1266;22532;-47
2023/05/17 11:03:13;;;;;;;3.60;3.30;;;22.40;61.40;;;;;;221738;1256;22626;-52
2023/05/17 11:08:18;;;;;;;6.00;2.90;;;22.30;60.90;;;;;;221694;1259;22525;-46
2023/05/17 11:13:26;;;;;;;3.20;2.90;;;22.20;61.20;;;;;;221944;1265;22563;-44
2023/05/17 11:18:50;;;;;;;3.50;2.90;;;22.30;61.30;;;;;;222111;1264;24177;-50
2023/05/17 11:23:58;;;;;;;4.10;2.80;;;22.30;61.10;;;;;;220671;1265;22602;-47
2023/05/17 11:29:09;;;;;;;4.50;3.10;;;22.30;61.20;;;;;;220841;1264;22721;-46
2023/05/17 11:34:13;;;;;;;4.80;2.90;;;22.30;60.90;;;;;;220672;1265;24231;-51
2023/05/17 11:39:20;;;;;;;5.40;2.80;;;22.30;61.10;;;;;;220879;1262;23919;-47
2023/05/17 11:44:28;;;;;;;3.90;3.00;;;22.40;60.70;;;;;;221942;1265;25440;-45
2023/05/17 11:49:36;;;;;;;6.00;3.50;;;22.40;60.50;;;;;;221852;1265;22764;-46
2023/05/17 11:54:41;;;;;;;4.80;2.80;;;22.30;60.50;;;;;;221946;1256;22596;-48
2023/05/17 11:59:46;;;;;;;3.50;2.80;;;22.40;60.50;;;;;;221933;1266;22545;-49
2023/05/17 12:04:50;;;;;;;5.00;3.20;;;22.40;60.80;;;;;;221755;1266;22510;-47
2023/05/17 12:09:55;;;;;;;3.10;2.50;;;22.40;60.40;;;;;;221884;1266;22534;-48
2023/05/17 12:14:59;;;;;;;3.60;3.30;;;22.40;60.20;;;;;;221749;1249;22727;-44
2023/05/17 12:20:09;;;;;;;2.90;2.50;;;22.40;60.20;;;;;;221757;1256;22508;-48
2023/05/17 12:25:24;;;;;;;3.30;2.70;;;22.10;60.80;;;;;;221678;1262;23924;-50
2023/05/17 12:30:28;;;;;;;5.40;2.50;;;22.10;60.90;;;;;;221802;1256;22556;-46
2023/05/17 12:35:33;;;;;;;3.40;2.40;;;22.20;60.70;;;;;;222047;1264;24239;-50
2023/05/17 12:40:39;;;;;;;3.50;2.80;;;22.20;60.20;;;;;;221911;1260;24234;-48
2023/05/17 12:45:46;;;;;;;6.30;2.50;;;22.10;59.90;;;;;;221890;1258;25272;-47
2023/05/17 12:50:51;;;;;;;4.40;3.00;;;22.10;59.80;;;;;;221569;1264;22518;-45
2023/05/17 12:55:58;;;;;;;5.10;2.80;;;22.20;59.40;;;;;;221683;1266;22521;-47
2023/05/17 13:01:06;;;;;;;3.60;2.80;;;22.20;59.40;;;;;;221493;1256;22560;-50
2023/05/17 13:06:10;;;;;;;3.60;2.70;;;22.20;59.30;;;;;;221501;1269;24365;-47
2023/05/17 13:11:14;;;;;;;4.20;3.00;;;22.20;59.40;;;;;;221446;1262;23006;-44
2023/05/17 13:16:29;;;;;;;4.00;2.60;;;22.20;59.40;;;;;;221576;1266;24356;-46
2023/05/17 13:21:33;;;;;;;5.10;2.30;;;22.40;59.10;;;;;;221609;1267;22511;-50
2023/05/17 13:26:37;;;;;;;5.50;2.80;;;22.30;60.20;;;;;;221772;1268;23932;-49
2023/05/17 13:31:41;;;;;;;3.60;3.30;;;22.30;60.80;;;;;;221757;1265;22514;-45
2023/05/17 13:36:46;;;;;;;3.90;3.20;;;22.30;62.50;;;;;;221630;1266;24257;-51
2023/05/17 13:41:51;;;;;;;4.30;2.70;;;22.30;63.70;;;;;;221685;1250;22641;-49
2023/05/17 13:46:56;;;;;;;9.60;3.30;;;22.30;63.70;;;;;;221678;1265;22596;-45
2023/05/17 13:52:00;;;;;;;4.40;4.00;;;22.30;64.10;;;;;;221696;1266;25238;-46
2023/05/17 13:57:06;;;;;;;7.80;3.80;;;22.30;65.60;;;;;;221710;1260;26523;-48
2023/05/17 14:02:10;;;;;;;4.60;4.20;;;22.30;66.50;;;;;;221707;1259;22772;-52
2023/05/17 14:07:15;;;;;;;3.90;3.50;;;22.30;66.90;;;;;;221592;1262;24202;-46
2023/05/17 14:12:19;;;;;;;4.80;3.50;;;22.40;65.70;;;;;;221432;1265;220374;-50
2023/05/17 14:17:23;;;;;;;4.20;3.50;;;22.30;65.00;;;;;;221912;1259;24230;-49
2023/05/17 14:22:29;;;;;;;3.50;3.20;;;22.30;64.60;;;;;;221840;1256;22679;-44
2023/05/17 14:27:33;;;;;;;6.20;3.50;;;22.30;64.00;;;;;;221794;1264;22622;-53
2023/05/17 14:32:38;;;;;;;3.40;3.10;;;22.40;63.70;;;;;;221832;1261;24408;-48
2023/05/17 14:37:43;;;;;;;3.30;3.00;;;22.40;63.30;;;;;;221805;1266;23066;-51
2023/05/17 14:42:47;;;;;;;3.50;3.00;;;22.50;63.00;;;;;;221892;1264;25322;-46
2023/05/17 14:47:52;;;;;;;3.50;3.20;;;22.50;63.00;;;;;;221866;1257;22626;-47
2023/05/17 14:52:56;;;;;;;3.80;3.10;;;22.40;63.00;;;;;;221822;1266;22507;-47
2023/05/17 14:58:01;;;;;;;5.30;2.60;;;22.40;62.10;;;;;;221740;1264;22517;-47
2023/05/17 15:03:05;;;;;;;6.90;3.70;;;22.40;61.90;;;;;;221887;1264;25378;-47
2023/05/17 15:08:11;;;;;;;6.20;3.80;;;22.50;61.30;;;;;;221634;1259;24177;-46
2023/05/17 15:13:16;;;;;;;5.70;3.50;;;22.40;60.60;;;;;;221726;1256;23812;-48
2023/05/17 15:18:21;;;;;;;4.70;3.40;;;22.40;61.40;;;;;;221838;1266;24171;-48
2023/05/17 15:23:25;;;;;;;7.20;2.80;;;22.40;61.90;;;;;;221909;1265;24198;-45
2023/05/17 15:28:29;;;;;;;8.10;3.30;;;22.40;61.40;;;;;;221876;1266;22540;-46
2023/05/17 15:33:35;;;;;;;7.20;3.50;;;22.30;61.80;;;;;;221650;1266;25217;-45
2023/05/17 15:38:39;;;;;;;5.60;2.90;;;22.20;61.80;;;;;;221719;1266;25282;-48
2023/05/17 15:43:43;;;;;;;4.70;2.90;;;22.30;62.00;;;;;;221697;1271;22615;-44
2023/05/17 15:48:47;;;;;;;7.00;3.20;;;22.30;61.90;;;;;;221720;1266;22605;-45
2023/05/17 15:53:51;;;;;;;4.90;3.10;;;22.20;61.70;;;;;;221868;1268;24381;-47
2023/05/17 15:58:56;;;;;;;10.30;3.10;;;22.20;62.10;;;;;;221823;1257;22523;-46
2023/05/17 16:04:00;;;;;;;6.30;2.60;;;22.30;62.00;;;;;;221849;1266;22509;-47
2023/05/17 16:09:04;;;;;;;7.00;3.20;;;22.30;61.70;;;;;;221777;1256;22775;-49
2023/05/17 16:14:08;;;;;;;8.00;2.70;;;22.40;61.00;;;;;;221881;1263;23396;-45
2023/05/17 16:19:13;;;;;;;9.60;3.10;;;22.40;61.10;;;;;;222140;1266;25580;-50
2023/05/17 16:24:18;;;;;;;8.10;3.20;;;22.30;60.90;;;;;;221612;1269;24355;-45
2023/05/17 16:29:22;;;;;;;10.10;3.10;;;22.30;60.00;;;;;;221692;1259;25396;-46
2023/05/17 16:34:27;;;;;;;11.80;4.60;;;22.30;58.90;;;;;;221902;1263;24193;-45
2023/05/17 16:39:32;;;;;;;7.30;3.00;;;22.40;58.80;;;;;;222064;1256;25337;-47
2023/05/17 16:44:36;;;;;;;9.10;3.30;;;22.40;58.40;;;;;;221744;1265;24070;-44
2023/05/17 16:49:41;;;;;;;8.80;3.60;;;22.30;58.50;;;;;;221788;1265;25312;-44
2023/05/17 16:54:45;;;;;;;9.60;3.50;;;22.20;59.50;;;;;;221781;1266;25281;-44
2023/05/17 16:59:50;;;;;;;32.60;4.00;;;22.30;59.00;;;;;;221934;1257;22583;-47
2023/05/17 17:04:54;;;;;;;12.50;3.80;;;22.20;59.30;;;;;;221989;1263;24382;-47
2023/05/17 17:09:58;;;;;;;10.20;3.50;;;22.20;59.20;;;;;;221874;1264;22772;-43
2023/05/17 17:15:03;;;;;;;14.50;3.70;;;22.20;59.10;;;;;;221812;1257;22522;-42
2023/05/17 17:20:11;;;;;;;10.40;3.60;;;22.30;59.10;;;;;;221747;1266;22632;-43
2023/05/17 17:25:15;;;;;;;20.90;7.00;;;22.30;59.60;;;;;;221682;1266;22516;-43
2023/05/17 17:30:20;;;;;;;20.20;5.20;;;22.20;62.40;;;;;;229460;1269;23160;-46
2023/05/17 17:35:24;;;;;;;21.90;5.20;;;22.30;62.10;;;;;;224279;1265;22527;-47
2023/05/17 17:40:28;;;;;;;16.10;5.00;;;22.60;62.00;;;;;;222613;1263;24335;-47
2023/05/17 17:45:32;;;;;;;12.20;5.00;;;22.50;60.80;;;;;;221834;1263;22634;-48
2023/05/17 17:50:37;;;;;;;14.80;4.90;;;22.30;60.80;;;;;;221980;1259;22514;-48
2023/05/17 17:55:41;;;;;;;21.20;4.70;;;22.20;61.30;;;;;;221509;1260;22522;-52
2023/05/17 18:00:48;;;;;;;17.20;4.40;;;22.10;61.30;;;;;;221803;1264;24388;-52
2023/05/17 18:05:52;;;;;;;15.90;4.40;;;22.10;61.50;;;;;;221883;1269;23890;-47
2023/05/17 18:10:56;;;;;;;26.30;5.80;;;22.30;61.20;;;;;;221823;1267;22622;-46
2023/05/17 18:16:01;;;;;;;18.60;5.30;;;22.50;61.00;;;;;;221859;1264;22619;-46
2023/05/17 18:21:07;;;;;;;17.10;5.00;;;22.60;60.20;;;;;;221940;1260;25216;-47
2023/05/17 18:26:11;;;;;;;15.60;4.00;;;22.50;60.30;;;;;;221769;1266;26293;-49
2023/05/17 18:31:17;;;;;;;22.30;4.80;;;22.40;61.00;;;;;;221870;1263;22534;-50
2023/05/17 18:36:22;;;;;;;11.70;4.10;;;22.50;60.90;;;;;;221897;1266;22549;-49
2023/05/17 18:41:27;;;;;;;10.90;4.20;;;22.50;60.30;;;;;;221671;1263;25311;-46
2023/05/17 18:46:33;;;;;;;18.80;4.80;;;22.30;60.40;;;;;;221700;1263;22703;-47
2023/05/17 18:51:38;;;;;;;11.30;4.10;;;22.30;60.30;;;;;;221518;1272;23160;-47
2023/05/17 18:56:42;;;;;;;10.70;4.30;;;22.20;60.30;;;;;;221725;1269;23172;-50
2023/05/17 19:01:51;;;;;;;12.20;4.50;;;22.20;60.30;;;;;;221780;1259;22772;-49
2023/05/17 19:06:56;;;;;;;15.20;4.00;;;22.20;60.20;;;;;;221495;1266;23912;-48
2023/05/17 19:12:01;;;;;;;14.90;4.10;;;22.10;60.00;;;;;;221484;1269;22536;-47
2023/05/17 19:17:08;;;;;;;15.00;4.30;;;22.20;60.00;;;;;;221496;1269;23889;-45
2023/05/17 19:22:14;;;;;;;10.40;3.60;;;22.20;60.00;;;;;;222092;1256;25218;-52
2023/05/17 19:27:19;;;;;;;8.90;3.60;;;22.20;59.80;;;;;;221912;1263;22626;-48
2023/05/17 19:32:25;;;;;;;11.00;3.70;;;22.20;60.10;;;;;;221813;1264;26516;-53
2023/05/17 19:37:32;;;;;;;9.90;3.20;;;22.20;60.10;;;;;;221846;1264;22591;-49
2023/05/17 19:42:38;;;;;;;7.70;3.40;;;22.40;60.00;;;;;;221783;1269;24282;-47
2023/05/17 19:47:44;;;;;;;11.80;4.90;;;22.30;59.70;;;;;;221544;1266;25558;-46
2023/05/17 19:52:51;;;;;;;10.80;3.50;;;22.30;59.40;;;;;;222091;1248;22569;-47
2023/05/17 19:57:56;;;;;;;14.00;3.30;;;22.40;59.40;;;;;;221867;1253;24452;-49
2023/05/17 20:03:01;;;;;;;7.60;3.60;;;22.20;59.60;;;;;;222224;1269;26495;-49
2023/05/17 20:08:06;;;;;;;9.60;3.40;;;22.20;60.20;;;;;;222072;1257;22515;-45
2023/05/17 20:13:12;;;;;;;9.30;3.90;;;22.20;60.50;;;;;;222109;1265;24419;-49
2023/05/17 20:18:18;;;;;;;11.20;3.30;;;22.20;60.30;;;;;;222141;1268;22798;-51
2023/05/17 20:23:23;;;;;;;8.70;3.70;;;22.20;60.10;;;;;;221610;1269;22611;-50
2023/05/17 20:28:28;;;;;;;11.10;3.40;;;22.30;60.20;;;;;;221724;1259;24091;-48
2023/05/17 20:33:32;;;;;;;15.30;5.90;;;22.30;61.60;;;;;;221881;1265;26510;-47
2023/05/17 20:38:38;;;;;;;11.60;4.30;;;22.20;61.90;;;;;;221871;1263;22576;-49
2023/05/17 20:43:48;;;;;;;8.50;3.50;;;22.20;61.80;;;;;;221870;1259;22525;-52
2023/05/17 20:48:54;;;;;;;8.60;4.20;;;22.20;61.20;;;;;;221866;1258;24189;-49
2023/05/17 20:54:00;;;;;;;10.60;3.60;;;22.20;61.00;;;;;;221866;1266;24232;-49
2023/05/17 20:59:05;;;;;;;12.10;3.60;;;22.30;60.50;;;;;;221778;1269;22625;-44
2023/05/17 21:04:10;;;;;;;9.90;3.50;;;22.30;60.90;;;;;;221788;1267;24197;-46
2023/05/17 21:09:14;;;;;;;11.10;3.70;;;22.20;60.50;;;;;;221831;1269;22717;-46
2023/05/17 21:14:18;;;;;;;7.20;4.00;;;22.20;60.60;;;;;;221882;1257;22659;-44
2023/05/17 21:19:23;;;;;;;10.20;4.50;;;22.20;65.80;;;;;;221533;1264;22572;-47
2023/05/17 21:24:27;;;;;;;11.00;5.20;;;22.30;63.70;;;;;;224656;1272;22533;-46
2023/05/17 21:29:31;;;;;;;12.20;5.00;;;22.20;62.60;;;;;;221726;1263;22527;-47
2023/05/17 21:34:37;;;;;;;13.20;4.60;;;22.10;62.10;;;;;;221607;1267;22665;-44
2023/05/17 21:39:41;;;;;;;13.30;4.40;;;22.20;61.80;;;;;;221730;1258;24188;-44
2023/05/17 21:44:45;;;;;;;10.70;4.90;;;22.20;67.10;;;;;;222101;1258;22530;-44
2023/05/17 21:49:49;;;;;;;17.90;5.20;;;22.30;67.00;;;;;;221998;1263;22518;-46
2023/05/17 21:54:56;;;;;;;7.60;4.50;;;22.30;66.60;;;;;;221858;1259;22557;-50
2023/05/17 22:00:11;;;;;;;14.20;5.40;;;22.30;67.20;;;;;;221804;1258;22914;-46
2023/05/17 22:05:15;;;;;;;9.60;4.50;;;22.30;66.50;;;;;;221866;1266;22515;-49
2023/05/17 22:10:23;;;;;;;13.10;5.20;;;22.30;66.60;;;;;;221628;1260;22521;-50
2023/05/17 22:15:27;;;;;;;13.50;4.50;;;22.20;66.40;;;;;;221773;1264;24099;-49
2023/05/17 22:20:31;;;;;;;11.60;4.70;;;22.20;66.20;;;;;;221875;1264;22515;-46
2023/05/17 22:25:36;;;;;;;7.40;3.80;;;22.20;66.00;;;;;;221944;1257;25303;-48
2023/05/17 22:30:43;;;;;;;8.80;4.70;;;22.30;65.80;;;;;;222126;1264;24190;-46
2023/05/17 22:35:51;;;;;;;9.60;4.00;;;22.30;65.60;;;;;;221906;1248;22524;-53
2023/05/17 22:40:58;;;;;;;8.50;4.10;;;22.20;65.50;;;;;;221781;1267;24361;-46
2023/05/17 22:46:02;;;;;;;7.90;4.20;;;22.20;65.40;;;;;;221743;1264;25468;-44
2023/05/17 22:51:06;;;;;;;8.50;4.30;;;22.20;65.30;;;;;;221717;1251;24058;-51
2023/05/17 22:56:11;;;;;;;9.50;3.80;;;22.00;65.40;;;;;;221665;1257;24288;-43
2023/05/17 23:01:16;;;;;;;12.10;4.30;;;22.20;65.10;;;;;;221421;1250;22557;-45
2023/05/17 23:06:20;;;;;;;7.80;4.30;;;22.00;65.10;;;;;;221412;1265;22656;-44
2023/05/17 23:11:25;;;;;;;6.50;4.10;;;22.00;65.20;;;;;;221544;1267;23950;-43
2023/05/17 23:16:29;;;;;;;8.40;4.20;;;22.00;64.60;;;;;;221914;1271;26498;-44
2023/05/17 23:21:34;;;;;;;5.40;3.20;;;22.00;64.60;;;;;;221574;1258;22778;-45
2023/05/17 23:26:39;;;;;;;7.00;3.40;;;22.00;64.60;;;;;;221563;1261;25685;-42
2023/05/17 23:31:46;;;;;;;8.80;3.80;;;21.90;64.40;;;;;;221690;1257;22567;-44
2023/05/17 23:36:50;;;;;;;5.70;3.90;;;21.90;64.60;;;;;;221765;1252;22536;-44
2023/05/17 23:41:57;;;;;;;6.90;3.90;;;21.90;64.70;;;;;;221550;1266;24187;-44
2023/05/17 23:47:03;;;;;;;5.90;3.80;;;21.90;64.40;;;;;;221759;1270;22517;-44
2023/05/17 23:52:10;;;;;;;5.60;3.80;;;21.90;64.20;;;;;;221505;1257;24197;-43
2023/05/17 23:57:14;;;;;;;7.30;3.00;;;21.90;64.20;;;;;;222225;1263;22560;-43
